Terminal Aerodrome Forecast
Issued by NWS Wilmington, NC

Home | Current Version | Previous Version | Text Only | Print | Product List | Glossary On
Versions: 1 2 3 4 5 6 7 8 9 10 11 12 13 14 15 16
000
FTUS42 KILM 010600 CCA
TAFFLO
TAF COR
KFLO 010620Z 0106/0206 00000KT P6SM SKC
      TEMPO 0106/0109 1SM BR
     FM010900 00000KT 2SM BR SKC
      TEMPO 0109/0112 3/4SM BR SCT003
     FM011300 04006KT P6SM SCT250=

USA.gov is the U.S. government's official web portal to all federal, state and local government web resources and services.